Industry, Kansas
Current Conditions -  °F | °C
As of 8:58 AM on Wednesday 26 Nov 2014 (Local Time) from KFRI Reporting Station
Overcast Overcast  
Wind Chill: 36°   Ceiling: 6500
Heat Index: 43°   Visibility: 10mi
Dew Point: 24°   Wind: 13mph
Humidity: 48%   Direction: 310°NW
Pressure: 30.05"   Gusts: 22mph
Location:  39.0421°N, 97.1702°W
Report Text: KFRI 261458Z AUTO 31011G19KT 10SM OVC065 06/M04 A3005 RMK AO2 SLP179 T00591043 52019
Loading
Personal Weather Stations






























Interactive Weather Map New forecast layout! Learn more

10-Day Weather Forecast

Advertisements
Track Severe Weather on mobile